sensor_id;sensor_type;location;lat;lon;timestamp;P1;durP1;ratioP1;P2;durP2;ratioP2
30888;SDS011;51092;50.874;7.024;2022-07-15T00:00:31;4.72;;;2.17;;
30888;SDS011;51092;50.874;7.024;2022-07-15T00:01:33;7.97;;;2.05;;
30888;SDS011;51092;50.874;7.024;2022-07-15T00:02:35;6.32;;;1.95;;
30888;SDS011;51092;50.874;7.024;2022-07-15T00:03:38;10.75;;;1.90;;
30888;SDS011;51092;50.874;7.024;2022-07-15T00:04:42;5.90;;;1.85;;
30888;SDS011;51092;50.874;7.024;2022-07-15T00:05:44;8.77;;;2.25;;
30888;SDS011;51092;50.874;7.024;2022-07-15T00:06:46;9.07;;;1.88;;
30888;SDS011;51092;50.874;7.024;2022-07-15T00:07:48;4.97;;;1.58;;
30888;SDS011;51092;50.874;7.024;2022-07-15T00:08:51;8.40;;;1.85;;
30888;SDS011;51092;50.874;7.024;2022-07-15T00:09:52;4.82;;;1.58;;
30888;SDS011;51092;50.874;7.024;2022-07-15T00:11:12;6.15;;;1.90;;
30888;SDS011;51092;50.874;7.024;2022-07-15T00:12:17;4.88;;;1.60;;
30888;SDS011;51092;50.874;7.024;2022-07-15T00:13:19;8.13;;;1.65;;
30888;SDS011;51092;50.874;7.024;2022-07-15T00:14:21;5.60;;;1.45;;
30888;SDS011;51092;50.874;7.024;2022-07-15T00:15:23;4.55;;;1.80;;
30888;SDS011;51092;50.874;7.024;2022-07-15T00:16:27;4.82;;;1.60;;
30888;SDS011;51092;50.874;7.024;2022-07-15T00:17:29;11.00;;;2.22;;
30888;SDS011;51092;50.874;7.024;2022-07-15T00:18:32;5.40;;;1.95;;
30888;SDS011;51092;50.874;7.024;2022-07-15T00:19:34;6.13;;;2.28;;
30888;SDS011;51092;50.874;7.024;2022-07-15T00:20:38;3.00;;;1.40;;
30888;SDS011;51092;50.874;7.024;2022-07-15T00:21:41;6.90;;;1.85;;
30888;SDS011;51092;50.874;7.024;2022-07-15T00:22:42;6.90;;;1.52;;
30888;SDS011;51092;50.874;7.024;2022-07-15T00:23:46;7.53;;;2.20;;
30888;SDS011;51092;50.874;7.024;2022-07-15T00:24:47;6.18;;;1.90;;
30888;SDS011;51092;50.874;7.024;2022-07-15T00:25:50;6.13;;;1.70;;
30888;SDS011;51092;50.874;7.024;2022-07-15T00:26:52;7.78;;;1.80;;
30888;SDS011;51092;50.874;7.024;2022-07-15T00:27:56;5.47;;;2.28;;
30888;SDS011;51092;50.874;7.024;2022-07-15T00:28:58;6.68;;;1.50;;
30888;SDS011;51092;50.874;7.024;2022-07-15T00:30:01;9.27;;;1.50;;
30888;SDS011;51092;50.874;7.024;2022-07-15T00:31:04;6.90;;;1.88;;
30888;SDS011;51092;50.874;7.024;2022-07-15T00:32:06;5.05;;;1.55;;
30888;SDS011;51092;50.874;7.024;2022-07-15T00:33:08;4.75;;;1.65;;
30888;SDS011;51092;50.874;7.024;2022-07-15T00:34:11;7.25;;;1.90;;
30888;SDS011;51092;50.874;7.024;2022-07-15T00:35:13;5.55;;;1.90;;
30888;SDS011;51092;50.874;7.024;2022-07-15T00:36:17;5.25;;;1.77;;
30888;SDS011;51092;50.874;7.024;2022-07-15T00:37:19;4.40;;;1.90;;
30888;SDS011;51092;50.874;7.024;2022-07-15T00:38:21;6.63;;;2.08;;
30888;SDS011;51092;50.874;7.024;2022-07-15T00:39:23;8.25;;;2.58;;
30888;SDS011;51092;50.874;7.024;2022-07-15T00:40:26;8.95;;;2.08;;
30888;SDS011;51092;50.874;7.024;2022-07-15T00:41:34;8.90;;;2.17;;
30888;SDS011;51092;50.874;7.024;2022-07-15T00:42:37;8.43;;;2.40;;
30888;SDS011;51092;50.874;7.024;2022-07-15T00:43:44;10.18;;;2.45;;
30888;SDS011;51092;50.874;7.024;2022-07-15T00:44:46;6.25;;;2.08;;
30888;SDS011;51092;50.874;7.024;2022-07-15T00:45:48;5.60;;;2.53;;
30888;SDS011;51092;50.874;7.024;2022-07-15T00:46:50;8.77;;;2.00;;
30888;SDS011;51092;50.874;7.024;2022-07-15T00:47:53;6.10;;;2.15;;
30888;SDS011;51092;50.874;7.024;2022-07-15T00:48:57;9.07;;;2.65;;
30888;SDS011;51092;50.874;7.024;2022-07-15T00:50:00;8.65;;;2.00;;
30888;SDS011;51092;50.874;7.024;2022-07-15T00:51:03;12.27;;;2.15;;
30888;SDS011;51092;50.874;7.024;2022-07-15T00:52:06;6.30;;;2.35;;
30888;SDS011;51092;50.874;7.024;2022-07-15T00:53:10;5.70;;;2.10;;
30888;SDS011;51092;50.874;7.024;2022-07-15T00:54:18;9.23;;;2.53;;
30888;SDS011;51092;50.874;7.024;2022-07-15T00:55:24;9.35;;;2.30;;
30888;SDS011;51092;50.874;7.024;2022-07-15T00:56:27;6.45;;;2.38;;
30888;SDS011;51092;50.874;7.024;2022-07-15T00:57:30;6.30;;;2.40;;
30888;SDS011;51092;50.874;7.024;2022-07-15T00:58:36;9.77;;;2.35;;
30888;SDS011;51092;50.874;7.024;2022-07-15T00:59:39;12.80;;;3.72;;
30888;SDS011;51092;50.874;7.024;2022-07-15T01:00:41;8.48;;;2.33;;
30888;SDS011;51092;50.874;7.024;2022-07-15T01:01:45;6.03;;;2.25;;
30888;SDS011;51092;50.874;7.024;2022-07-15T01:02:47;6.70;;;2.40;;
30888;SDS011;51092;50.874;7.024;2022-07-15T01:03:51;5.85;;;2.38;;
30888;SDS011;51092;50.874;7.024;2022-07-15T01:04:54;10.68;;;2.72;;
30888;SDS011;51092;50.874;7.024;2022-07-15T01:05:58;6.43;;;2.92;;
30888;SDS011;51092;50.874;7.024;2022-07-15T01:06:59;6.78;;;2.30;;
30888;SDS011;51092;50.874;7.024;2022-07-15T01:08:04;8.35;;;3.33;;
30888;SDS011;51092;50.874;7.024;2022-07-15T01:09:05;11.55;;;2.90;;
30888;SDS011;51092;50.874;7.024;2022-07-15T01:10:08;7.82;;;2.75;;
30888;SDS011;51092;50.874;7.024;2022-07-15T01:11:10;12.15;;;3.22;;
30888;SDS011;51092;50.874;7.024;2022-07-15T01:12:13;11.45;;;3.00;;
30888;SDS011;51092;50.874;7.024;2022-07-15T01:13:16;7.10;;;2.58;;
30888;SDS011;51092;50.874;7.024;2022-07-15T01:14:19;14.27;;;3.38;;
30888;SDS011;51092;50.874;7.024;2022-07-15T01:15:20;5.57;;;2.45;;
30888;SDS011;51092;50.874;7.024;2022-07-15T01:16:23;8.00;;;2.72;;
30888;SDS011;51092;50.874;7.024;2022-07-15T01:17:25;9.00;;;2.85;;
30888;SDS011;51092;50.874;7.024;2022-07-15T01:18:27;10.38;;;2.53;;
30888;SDS011;51092;50.874;7.024;2022-07-15T01:19:29;8.75;;;2.95;;
30888;SDS011;51092;50.874;7.024;2022-07-15T01:20:32;11.27;;;2.80;;
30888;SDS011;51092;50.874;7.024;2022-07-15T01:21:35;11.52;;;2.65;;
30888;SDS011;51092;50.874;7.024;2022-07-15T01:22:39;12.52;;;3.03;;
30888;SDS011;51092;50.874;7.024;2022-07-15T01:23:41;13.25;;;3.22;;
30888;SDS011;51092;50.874;7.024;2022-07-15T01:24:44;10.65;;;2.97;;
30888;SDS011;51092;50.874;7.024;2022-07-15T01:25:46;11.30;;;3.30;;
30888;SDS011;51092;50.874;7.024;2022-07-15T01:26:48;8.57;;;3.25;;
30888;SDS011;51092;50.874;7.024;2022-07-15T01:27:50;7.93;;;3.50;;
30888;SDS011;51092;50.874;7.024;2022-07-15T01:28:53;15.13;;;3.20;;
30888;SDS011;51092;50.874;7.024;2022-07-15T01:29:55;14.75;;;3.55;;
30888;SDS011;51092;50.874;7.024;2022-07-15T01:30:57;6.80;;;3.05;;
30888;SDS011;51092;50.874;7.024;2022-07-15T01:31:59;12.68;;;3.53;;
30888;SDS011;51092;50.874;7.024;2022-07-15T01:33:01;8.95;;;2.58;;
30888;SDS011;51092;50.874;7.024;2022-07-15T01:34:03;14.02;;;3.25;;
30888;SDS011;51092;50.874;7.024;2022-07-15T01:35:07;8.73;;;3.15;;
30888;SDS011;51092;50.874;7.024;2022-07-15T01:36:09;9.05;;;3.75;;
30888;SDS011;51092;50.874;7.024;2022-07-15T01:37:13;14.85;;;3.35;;
30888;SDS011;51092;50.874;7.024;2022-07-15T01:38:15;6.90;;;2.78;;
30888;SDS011;51092;50.874;7.024;2022-07-15T01:39:17;10.32;;;3.03;;
30888;SDS011;51092;50.874;7.024;2022-07-15T01:40:19;13.75;;;3.67;;
30888;SDS011;51092;50.874;7.024;2022-07-15T01:41:21;8.63;;;3.30;;
30888;SDS011;51092;50.874;7.024;2022-07-15T01:42:23;10.40;;;3.28;;
30888;SDS011;51092;50.874;7.024;2022-07-15T01:43:25;14.50;;;3.53;;
30888;SDS011;51092;50.874;7.024;2022-07-15T01:44:27;9.50;;;3.70;;
30888;SDS011;51092;50.874;7.024;2022-07-15T01:45:29;10.40;;;3.47;;
30888;SDS011;51092;50.874;7.024;2022-07-15T01:46:31;11.15;;;3.10;;
30888;SDS011;51092;50.874;7.024;2022-07-15T01:47:34;8.13;;;3.13;;
30888;SDS011;51092;50.874;7.024;2022-07-15T01:48:42;13.50;;;3.72;;
30888;SDS011;51092;50.874;7.024;2022-07-15T01:50:02;10.50;;;3.78;;
30888;SDS011;51092;50.874;7.024;2022-07-15T01:51:06;13.30;;;2.80;;
30888;SDS011;51092;50.874;7.024;2022-07-15T01:52:07;10.30;;;3.20;;
30888;SDS011;51092;50.874;7.024;2022-07-15T01:53:12;7.70;;;3.10;;
30888;SDS011;51092;50.874;7.024;2022-07-15T01:54:13;13.98;;;3.58;;
30888;SDS011;51092;50.874;7.024;2022-07-15T01:55:16;8.23;;;3.20;;
30888;SDS011;51092;50.874;7.024;2022-07-15T01:56:18;13.00;;;3.30;;
30888;SDS011;51092;50.874;7.024;2022-07-15T01:57:19;14.00;;;4.28;;
30888;SDS011;51092;50.874;7.024;2022-07-15T01:58:21;15.18;;;3.78;;
30888;SDS011;51092;50.874;7.024;2022-07-15T01:59:23;13.30;;;3.75;;
30888;SDS011;51092;50.874;7.024;2022-07-15T02:00:27;14.18;;;3.58;;
30888;SDS011;51092;50.874;7.024;2022-07-15T02:01:28;12.38;;;3.08;;
30888;SDS011;51092;50.874;7.024;2022-07-15T02:02:31;9.95;;;2.60;;
30888;SDS011;51092;50.874;7.024;2022-07-15T02:03:33;9.80;;;3.25;;
30888;SDS011;51092;50.874;7.024;2022-07-15T02:04:35;7.13;;;3.08;;
30888;SDS011;51092;50.874;7.024;2022-07-15T02:05:37;13.60;;;3.70;;
30888;SDS011;51092;50.874;7.024;2022-07-15T02:06:40;15.93;;;3.35;;
30888;SDS011;51092;50.874;7.024;2022-07-15T02:07:42;6.63;;;2.80;;
30888;SDS011;51092;50.874;7.024;2022-07-15T02:08:46;6.80;;;3.42;;
30888;SDS011;51092;50.874;7.024;2022-07-15T02:09:48;10.57;;;2.67;;
30888;SDS011;51092;50.874;7.024;2022-07-15T02:10:50;13.10;;;3.00;;
30888;SDS011;51092;50.874;7.024;2022-07-15T02:11:52;12.88;;;3.22;;
30888;SDS011;51092;50.874;7.024;2022-07-15T02:12:56;12.45;;;3.63;;
30888;SDS011;51092;50.874;7.024;2022-07-15T02:13:58;12.35;;;3.20;;
30888;SDS011;51092;50.874;7.024;2022-07-15T02:15:02;12.82;;;2.72;;
30888;SDS011;51092;50.874;7.024;2022-07-15T02:16:05;11.57;;;3.60;;
30888;SDS011;51092;50.874;7.024;2022-07-15T02:17:07;10.95;;;3.00;;
30888;SDS011;51092;50.874;7.024;2022-07-15T02:18:08;11.77;;;3.28;;
30888;SDS011;51092;50.874;7.024;2022-07-15T02:19:11;9.02;;;2.97;;
30888;SDS011;51092;50.874;7.024;2022-07-15T02:20:12;16.50;;;3.42;;
30888;SDS011;51092;50.874;7.024;2022-07-15T02:21:14;11.93;;;3.03;;
30888;SDS011;51092;50.874;7.024;2022-07-15T02:22:16;8.95;;;3.28;;
30888;SDS011;51092;50.874;7.024;2022-07-15T02:23:18;13.35;;;3.65;;
30888;SDS011;51092;50.874;7.024;2022-07-15T02:24:21;9.50;;;3.47;;
30888;SDS011;51092;50.874;7.024;2022-07-15T02:25:24;12.18;;;2.88;;
30888;SDS011;51092;50.874;7.024;2022-07-15T02:26:26;11.32;;;4.05;;
30888;SDS011;51092;50.874;7.024;2022-07-15T02:27:29;11.48;;;4.25;;
30888;SDS011;51092;50.874;7.024;2022-07-15T02:28:31;8.50;;;3.28;;
30888;SDS011;51092;50.874;7.024;2022-07-15T02:29:33;9.80;;;3.90;;
30888;SDS011;51092;50.874;7.024;2022-07-15T02:30:35;13.95;;;4.28;;
30888;SDS011;51092;50.874;7.024;2022-07-15T02:31:39;7.78;;;2.97;;
30888;SDS011;51092;50.874;7.024;2022-07-15T02:32:40;15.05;;;3.90;;
30888;SDS011;51092;50.874;7.024;2022-07-15T02:33:43;13.68;;;3.60;;
30888;SDS011;51092;50.874;7.024;2022-07-15T02:34:44;13.85;;;4.43;;
30888;SDS011;51092;50.874;7.024;2022-07-15T02:35:47;12.00;;;4.22;;
30888;SDS011;51092;50.874;7.024;2022-07-15T02:36:49;14.55;;;3.40;;
30888;SDS011;51092;50.874;7.024;2022-07-15T02:37:51;12.13;;;3.28;;
30888;SDS011;51092;50.874;7.024;2022-07-15T02:38:53;11.32;;;3.55;;
30888;SDS011;51092;50.874;7.024;2022-07-15T02:39:57;7.38;;;2.75;;
30888;SDS011;51092;50.874;7.024;2022-07-15T02:40:59;10.82;;;3.10;;
30888;SDS011;51092;50.874;7.024;2022-07-15T02:42:03;9.93;;;2.88;;
30888;SDS011;51092;50.874;7.024;2022-07-15T02:43:06;10.95;;;3.17;;
30888;SDS011;51092;50.874;7.024;2022-07-15T02:44:09;9.80;;;3.63;;
30888;SDS011;51092;50.874;7.024;2022-07-15T02:45:11;9.13;;;3.13;;
30888;SDS011;51092;50.874;7.024;2022-07-15T02:46:13;10.48;;;2.97;;
30888;SDS011;51092;50.874;7.024;2022-07-15T02:47:16;12.02;;;3.00;;
30888;SDS011;51092;50.874;7.024;2022-07-15T02:48:18;10.30;;;3.80;;
30888;SDS011;51092;50.874;7.024;2022-07-15T02:49:20;10.32;;;3.25;;
30888;SDS011;51092;50.874;7.024;2022-07-15T02:50:21;12.38;;;3.38;;
30888;SDS011;51092;50.874;7.024;2022-07-15T02:51:23;16.85;;;4.00;;
30888;SDS011;51092;50.874;7.024;2022-07-15T02:52:24;14.05;;;3.47;;
30888;SDS011;51092;50.874;7.024;2022-07-15T02:53:27;14.23;;;3.17;;
30888;SDS011;51092;50.874;7.024;2022-07-15T02:54:30;12.57;;;3.60;;
30888;SDS011;51092;50.874;7.024;2022-07-15T02:55:33;8.95;;;2.45;;
30888;SDS011;51092;50.874;7.024;2022-07-15T02:56:36;9.75;;;3.00;;
30888;SDS011;51092;50.874;7.024;2022-07-15T02:57:38;14.50;;;3.67;;
30888;SDS011;51092;50.874;7.024;2022-07-15T02:58:40;13.73;;;3.45;;
30888;SDS011;51092;50.874;7.024;2022-07-15T02:59:43;7.95;;;3.10;;
30888;SDS011;51092;50.874;7.024;2022-07-15T03:00:45;12.18;;;3.10;;
30888;SDS011;51092;50.874;7.024;2022-07-15T03:01:47;12.13;;;3.08;;
30888;SDS011;51092;50.874;7.024;2022-07-15T03:02:49;8.48;;;2.30;;
30888;SDS011;51092;50.874;7.024;2022-07-15T03:03:51;17.75;;;2.90;;
30888;SDS011;51092;50.874;7.024;2022-07-15T03:04:54;16.98;;;3.95;;
30888;SDS011;51092;50.874;7.024;2022-07-15T03:05:57;16.05;;;2.90;;
30888;SDS011;51092;50.874;7.024;2022-07-15T03:07:00;13.10;;;3.50;;
30888;SDS011;51092;50.874;7.024;2022-07-15T03:08:02;8.07;;;2.50;;
30888;SDS011;51092;50.874;7.024;2022-07-15T03:09:04;7.40;;;2.47;;
30888;SDS011;51092;50.874;7.024;2022-07-15T03:10:10;10.18;;;2.85;;
30888;SDS011;51092;50.874;7.024;2022-07-15T03:11:13;8.48;;;2.80;;
30888;SDS011;51092;50.874;7.024;2022-07-15T03:12:16;6.97;;;2.55;;
30888;SDS011;51092;50.874;7.024;2022-07-15T03:13:17;9.45;;;2.50;;
30888;SDS011;51092;50.874;7.024;2022-07-15T03:14:20;8.77;;;2.63;;
30888;SDS011;51092;50.874;7.024;2022-07-15T03:15:22;10.77;;;3.47;;
30888;SDS011;51092;50.874;7.024;2022-07-15T03:16:24;9.63;;;2.90;;
30888;SDS011;51092;50.874;7.024;2022-07-15T03:17:26;10.57;;;2.80;;
30888;SDS011;51092;50.874;7.024;2022-07-15T03:18:29;9.75;;;2.80;;
30888;SDS011;51092;50.874;7.024;2022-07-15T03:19:31;8.13;;;2.22;;
30888;SDS011;51092;50.874;7.024;2022-07-15T03:20:33;9.77;;;2.60;;
30888;SDS011;51092;50.874;7.024;2022-07-15T03:21:36;9.13;;;2.00;;
30888;SDS011;51092;50.874;7.024;2022-07-15T03:22:38;19.77;;;3.00;;
30888;SDS011;51092;50.874;7.024;2022-07-15T03:23:42;12.15;;;2.60;;
30888;SDS011;51092;50.874;7.024;2022-07-15T03:24:45;14.18;;;2.83;;
30888;SDS011;51092;50.874;7.024;2022-07-15T03:25:47;11.07;;;2.45;;
30888;SDS011;51092;50.874;7.024;2022-07-15T03:26:51;9.57;;;2.33;;
30888;SDS011;51092;50.874;7.024;2022-07-15T03:27:53;5.55;;;2.63;;
30888;SDS011;51092;50.874;7.024;2022-07-15T03:28:55;10.35;;;2.40;;
30888;SDS011;51092;50.874;7.024;2022-07-15T03:29:58;8.27;;;2.38;;
30888;SDS011;51092;50.874;7.024;2022-07-15T03:31:01;8.18;;;2.53;;
30888;SDS011;51092;50.874;7.024;2022-07-15T03:32:04;11.48;;;2.90;;
30888;SDS011;51092;50.874;7.024;2022-07-15T03:33:07;7.80;;;2.05;;
30888;SDS011;51092;50.874;7.024;2022-07-15T03:34:09;10.75;;;2.42;;
30888;SDS011;51092;50.874;7.024;2022-07-15T03:35:11;17.33;;;2.97;;
30888;SDS011;51092;50.874;7.024;2022-07-15T03:36:13;12.30;;;2.22;;
30888;SDS011;51092;50.874;7.024;2022-07-15T03:37:15;10.20;;;2.50;;
30888;SDS011;51092;50.874;7.024;2022-07-15T03:38:18;16.17;;;2.97;;
30888;SDS011;51092;50.874;7.024;2022-07-15T03:39:20;9.90;;;3.13;;
30888;SDS011;51092;50.874;7.024;2022-07-15T03:40:22;9.40;;;3.03;;
30888;SDS011;51092;50.874;7.024;2022-07-15T03:41:24;11.02;;;2.83;;
30888;SDS011;51092;50.874;7.024;2022-07-15T03:42:30;9.18;;;2.17;;
30888;SDS011;51092;50.874;7.024;2022-07-15T03:43:32;7.35;;;2.20;;
30888;SDS011;51092;50.874;7.024;2022-07-15T03:44:37;9.48;;;2.53;;
30888;SDS011;51092;50.874;7.024;2022-07-15T03:45:38;11.90;;;2.90;;
30888;SDS011;51092;50.874;7.024;2022-07-15T03:46:41;11.90;;;2.65;;
30888;SDS011;51092;50.874;7.024;2022-07-15T03:47:43;6.43;;;2.33;;
30888;SDS011;51092;50.874;7.024;2022-07-15T03:48:46;11.60;;;2.38;;
30888;SDS011;51092;50.874;7.024;2022-07-15T03:49:47;13.77;;;3.08;;
30888;SDS011;51092;50.874;7.024;2022-07-15T03:50:50;11.90;;;2.20;;
30888;SDS011;51092;50.874;7.024;2022-07-15T03:51:51;9.73;;;2.85;;
30888;SDS011;51092;50.874;7.024;2022-07-15T03:52:54;12.10;;;2.85;;
30888;SDS011;51092;50.874;7.024;2022-07-15T03:53:55;9.63;;;2.40;;
30888;SDS011;51092;50.874;7.024;2022-07-15T03:54:58;9.63;;;2.88;;
30888;SDS011;51092;50.874;7.024;2022-07-15T03:56:00;8.55;;;2.83;;
30888;SDS011;51092;50.874;7.024;2022-07-15T03:57:02;9.93;;;3.00;;
30888;SDS011;51092;50.874;7.024;2022-07-15T03:58:06;11.05;;;2.47;;
30888;SDS011;51092;50.874;7.024;2022-07-15T03:59:08;10.38;;;2.88;;
30888;SDS011;51092;50.874;7.024;2022-07-15T04:00:10;7.00;;;2.35;;
30888;SDS011;51092;50.874;7.024;2022-07-15T04:01:13;10.18;;;2.80;;
30888;SDS011;51092;50.874;7.024;2022-07-15T04:02:15;9.07;;;3.00;;
30888;SDS011;51092;50.874;7.024;2022-07-15T04:03:18;10.02;;;2.40;;
30888;SDS011;51092;50.874;7.024;2022-07-15T04:04:19;11.10;;;2.65;;
30888;SDS011;51092;50.874;7.024;2022-07-15T04:05:22;9.88;;;2.75;;
30888;SDS011;51092;50.874;7.024;2022-07-15T04:06:23;14.23;;;3.28;;
30888;SDS011;51092;50.874;7.024;2022-07-15T04:07:26;15.65;;;3.33;;
30888;SDS011;51092;50.874;7.024;2022-07-15T04:08:27;13.05;;;3.22;;
30888;SDS011;51092;50.874;7.024;2022-07-15T04:09:30;11.30;;;3.05;;
30888;SDS011;51092;50.874;7.024;2022-07-15T04:10:32;11.27;;;2.42;;
30888;SDS011;51092;50.874;7.024;2022-07-15T04:11:34;9.35;;;2.60;;
30888;SDS011;51092;50.874;7.024;2022-07-15T04:12:36;8.93;;;2.72;;
30888;SDS011;51092;50.874;7.024;2022-07-15T04:13:39;9.52;;;2.78;;
30888;SDS011;51092;50.874;7.024;2022-07-15T04:14:41;10.38;;;2.45;;
30888;SDS011;51092;50.874;7.024;2022-07-15T04:15:44;7.70;;;2.47;;
30888;SDS011;51092;50.874;7.024;2022-07-15T04:16:46;10.88;;;2.78;;
30888;SDS011;51092;50.874;7.024;2022-07-15T04:17:48;9.90;;;3.17;;
30888;SDS011;51092;50.874;7.024;2022-07-15T04:18:51;9.88;;;2.63;;
30888;SDS011;51092;50.874;7.024;2022-07-15T04:19:52;13.27;;;3.08;;
30888;SDS011;51092;50.874;7.024;2022-07-15T04:20:55;13.30;;;2.42;;
30888;SDS011;51092;50.874;7.024;2022-07-15T04:21:56;11.18;;;2.67;;
30888;SDS011;51092;50.874;7.024;2022-07-15T04:22:59;12.43;;;2.38;;
30888;SDS011;51092;50.874;7.024;2022-07-15T04:24:00;11.48;;;2.78;;
30888;SDS011;51092;50.874;7.024;2022-07-15T04:25:03;12.73;;;3.13;;
30888;SDS011;51092;50.874;7.024;2022-07-15T04:26:06;9.18;;;2.47;;
30888;SDS011;51092;50.874;7.024;2022-07-15T04:27:08;11.23;;;2.67;;
30888;SDS011;51092;50.874;7.024;2022-07-15T04:28:10;11.05;;;2.63;;
30888;SDS011;51092;50.874;7.024;2022-07-15T04:29:14;15.40;;;3.65;;
30888;SDS011;51092;50.874;7.024;2022-07-15T04:30:15;11.68;;;2.50;;
30888;SDS011;51092;50.874;7.024;2022-07-15T04:31:18;11.82;;;2.80;;
30888;SDS011;51092;50.874;7.024;2022-07-15T04:32:19;10.20;;;2.53;;
30888;SDS011;51092;50.874;7.024;2022-07-15T04:33:22;15.32;;;3.13;;
30888;SDS011;51092;50.874;7.024;2022-07-15T04:34:24;9.85;;;3.13;;
30888;SDS011;51092;50.874;7.024;2022-07-15T04:35:27;13.10;;;2.92;;
30888;SDS011;51092;50.874;7.024;2022-07-15T04:36:28;8.40;;;2.85;;
30888;SDS011;51092;50.874;7.024;2022-07-15T04:37:31;19.08;;;3.83;;
30888;SDS011;51092;50.874;7.024;2022-07-15T04:38:32;10.70;;;2.83;;
30888;SDS011;51092;50.874;7.024;2022-07-15T04:39:35;10.75;;;2.88;;
30888;SDS011;51092;50.874;7.024;2022-07-15T04:40:37;10.85;;;3.30;;
30888;SDS011;51092;50.874;7.024;2022-07-15T04:41:40;10.82;;;3.03;;
30888;SDS011;51092;50.874;7.024;2022-07-15T04:42:42;12.00;;;3.95;;
30888;SDS011;51092;50.874;7.024;2022-07-15T04:43:45;18.67;;;3.80;;
30888;SDS011;51092;50.874;7.024;2022-07-15T04:44:48;11.90;;;2.90;;
30888;SDS011;51092;50.874;7.024;2022-07-15T04:45:50;13.88;;;3.58;;
30888;SDS011;51092;50.874;7.024;2022-07-15T04:46:53;14.30;;;3.70;;
30888;SDS011;51092;50.874;7.024;2022-07-15T04:47:55;10.95;;;3.20;;
30888;SDS011;51092;50.874;7.024;2022-07-15T04:48:57;9.50;;;2.83;;
30888;SDS011;51092;50.874;7.024;2022-07-15T04:50:17;12.07;;;3.90;;
30888;SDS011;51092;50.874;7.024;2022-07-15T04:51:37;16.83;;;3.15;;
30888;SDS011;51092;50.874;7.024;2022-07-15T04:52:42;12.48;;;3.45;;
30888;SDS011;51092;50.874;7.024;2022-07-15T04:53:43;12.05;;;3.50;;
30888;SDS011;51092;50.874;7.024;2022-07-15T04:54:47;13.32;;;3.20;;
30888;SDS011;51092;50.874;7.024;2022-07-15T04:55:48;8.25;;;3.00;;
30888;SDS011;51092;50.874;7.024;2022-07-15T04:56:51;11.98;;;3.70;;
30888;SDS011;51092;50.874;7.024;2022-07-15T04:57:53;12.63;;;3.25;;
30888;SDS011;51092;50.874;7.024;2022-07-15T04:58:55;10.88;;;3.53;;
30888;SDS011;51092;50.874;7.024;2022-07-15T04:59:58;13.00;;;3.40;;
30888;SDS011;51092;50.874;7.024;2022-07-15T05:01:01;8.00;;;2.92;;
30888;SDS011;51092;50.874;7.024;2022-07-15T05:02:05;9.93;;;3.05;;
30888;SDS011;51092;50.874;7.024;2022-07-15T05:03:06;10.15;;;2.83;;
30888;SDS011;51092;50.874;7.024;2022-07-15T05:04:12;16.27;;;3.80;;
30888;SDS011;51092;50.874;7.024;2022-07-15T05:05:14;14.27;;;3.25;;
30888;SDS011;51092;50.874;7.024;2022-07-15T05:06:16;12.38;;;3.28;;
30888;SDS011;51092;50.874;7.024;2022-07-15T05:07:18;12.00;;;3.38;;
30888;SDS011;51092;50.874;7.024;2022-07-15T05:08:20;18.38;;;3.72;;
30888;SDS011;51092;50.874;7.024;2022-07-15T05:09:22;12.40;;;3.28;;
30888;SDS011;51092;50.874;7.024;2022-07-15T05:10:24;13.13;;;3.17;;
30888;SDS011;51092;50.874;7.024;2022-07-15T05:11:26;13.65;;;4.05;;
30888;SDS011;51092;50.874;7.024;2022-07-15T05:12:29;19.13;;;3.55;;
30888;SDS011;51092;50.874;7.024;2022-07-15T05:13:31;13.45;;;3.85;;
30888;SDS011;51092;50.874;7.024;2022-07-15T05:14:34;9.98;;;3.65;;
30888;SDS011;51092;50.874;7.024;2022-07-15T05:15:37;7.40;;;2.72;;
30888;SDS011;51092;50.874;7.024;2022-07-15T05:16:39;11.02;;;3.40;;
30888;SDS011;51092;50.874;7.024;2022-07-15T05:17:42;8.50;;;3.55;;
30888;SDS011;51092;50.874;7.024;2022-07-15T05:18:43;8.68;;;3.83;;
30888;SDS011;51092;50.874;7.024;2022-07-15T05:19:46;14.70;;;3.67;;
30888;SDS011;51092;50.874;7.024;2022-07-15T05:20:47;10.55;;;3.35;;
30888;SDS011;51092;50.874;7.024;2022-07-15T05:21:51;14.43;;;3.40;;
30888;SDS011;51092;50.874;7.024;2022-07-15T05:22:52;14.57;;;4.45;;
30888;SDS011;51092;50.874;7.024;2022-07-15T05:23:55;9.35;;;3.53;;
30888;SDS011;51092;50.874;7.024;2022-07-15T05:24:57;10.10;;;3.13;;
30888;SDS011;51092;50.874;7.024;2022-07-15T05:26:00;8.50;;;3.35;;
30888;SDS011;51092;50.874;7.024;2022-07-15T05:27:02;13.13;;;3.67;;
30888;SDS011;51092;50.874;7.024;2022-07-15T05:28:04;10.50;;;4.10;;
30888;SDS011;51092;50.874;7.024;2022-07-15T05:29:06;9.77;;;3.97;;
30888;SDS011;51092;50.874;7.024;2022-07-15T05:30:09;9.68;;;3.80;;
30888;SDS011;51092;50.874;7.024;2022-07-15T05:31:14;12.23;;;4.50;;
30888;SDS011;51092;50.874;7.024;2022-07-15T05:32:17;16.40;;;4.82;;
30888;SDS011;51092;50.874;7.024;2022-07-15T05:33:18;11.32;;;4.25;;
30888;SDS011;51092;50.874;7.024;2022-07-15T05:34:21;10.88;;;4.22;;
30888;SDS011;51092;50.874;7.024;2022-07-15T05:35:22;10.82;;;3.88;;
30888;SDS011;51092;50.874;7.024;2022-07-15T05:36:25;17.30;;;4.30;;
30888;SDS011;51092;50.874;7.024;2022-07-15T05:37:27;14.98;;;5.25;;
30888;SDS011;51092;50.874;7.024;2022-07-15T05:38:29;10.85;;;4.35;;
30888;SDS011;51092;50.874;7.024;2022-07-15T05:39:32;18.17;;;4.38;;
30888;SDS011;51092;50.874;7.024;2022-07-15T05:40:33;13.63;;;4.38;;
30888;SDS011;51092;50.874;7.024;2022-07-15T05:41:36;8.93;;;3.92;;
30888;SDS011;51092;50.874;7.024;2022-07-15T05:42:37;11.45;;;4.60;;
30888;SDS011;51092;50.874;7.024;2022-07-15T05:43:41;17.20;;;4.63;;
30888;SDS011;51092;50.874;7.024;2022-07-15T05:44:43;13.65;;;4.45;;
30888;SDS011;51092;50.874;7.024;2022-07-15T05:45:45;11.48;;;4.10;;
30888;SDS011;51092;50.874;7.024;2022-07-15T05:46:49;12.77;;;4.53;;
30888;SDS011;51092;50.874;7.024;2022-07-15T05:47:51;12.52;;;4.03;;
30888;SDS011;51092;50.874;7.024;2022-07-15T05:48:54;14.95;;;4.45;;
30888;SDS011;51092;50.874;7.024;2022-07-15T05:49:55;13.45;;;4.45;;
30888;SDS011;51092;50.874;7.024;2022-07-15T05:50:58;12.70;;;4.15;;
30888;SDS011;51092;50.874;7.024;2022-07-15T05:52:00;11.18;;;4.30;;
30888;SDS011;51092;50.874;7.024;2022-07-15T05:53:02;17.90;;;3.97;;
30888;SDS011;51092;50.874;7.024;2022-07-15T05:54:05;10.05;;;3.67;;
30888;SDS011;51092;50.874;7.024;2022-07-15T05:55:07;14.25;;;3.70;;
30888;SDS011;51092;50.874;7.024;2022-07-15T05:56:10;11.50;;;3.97;;
30888;SDS011;51092;50.874;7.024;2022-07-15T05:57:11;10.20;;;4.22;;
30888;SDS011;51092;50.874;7.024;2022-07-15T05:58:14;10.40;;;3.25;;
30888;SDS011;51092;50.874;7.024;2022-07-15T05:59:15;18.02;;;4.45;;
30888;SDS011;51092;50.874;7.024;2022-07-15T06:00:18;13.02;;;3.90;;
30888;SDS011;51092;50.874;7.024;2022-07-15T06:01:20;16.83;;;3.42;;
30888;SDS011;51092;50.874;7.024;2022-07-15T06:02:25;20.52;;;4.72;;
30888;SDS011;51092;50.874;7.024;2022-07-15T06:03:26;12.00;;;4.13;;
30888;SDS011;51092;50.874;7.024;2022-07-15T06:04:29;17.30;;;4.90;;
30888;SDS011;51092;50.874;7.024;2022-07-15T06:05:30;13.23;;;4.03;;
30888;SDS011;51092;50.874;7.024;2022-07-15T06:06:33;14.18;;;3.90;;
30888;SDS011;51092;50.874;7.024;2022-07-15T06:07:35;12.68;;;3.78;;
30888;SDS011;51092;50.874;7.024;2022-07-15T06:08:38;9.85;;;3.88;;
30888;SDS011;51092;50.874;7.024;2022-07-15T06:09:39;11.77;;;3.72;;
30888;SDS011;51092;50.874;7.024;2022-07-15T06:10:42;15.10;;;4.13;;
30888;SDS011;51092;50.874;7.024;2022-07-15T06:11:45;15.50;;;4.80;;
30888;SDS011;51092;50.874;7.024;2022-07-15T06:12:46;14.63;;;4.45;;
30888;SDS011;51092;50.874;7.024;2022-07-15T06:13:49;11.00;;;3.88;;
30888;SDS011;51092;50.874;7.024;2022-07-15T06:14:50;12.10;;;3.60;;